Time;durP1;ratioP1;P1;durP2;ratioP2;P2;SDS_P1;SDS_P2;PMS_P1;PMS_P2;Temp;Humidity;BMP_temperature;BMP_pressure;BME280_temperature;BME280_humidity;BME280_pressure;Samples;Min_cycle;Max_cycle;Signal;HPM_P1;HPM_P2
2022/11/16 06:57:18;;;;;;;20.17;14.78;;;;;;;5.68;100.00;98932.16;1727226;80;28053;-74
2022/11/16 06:59:46;;;;;;;22.42;14.70;;;;;;;5.75;100.00;98932.04;1725252;82;21601;-73
2022/11/16 07:02:13;;;;;;;20.27;17.15;;;;;;;5.81;100.00;98933.73;1724956;83;21031;-75
2022/11/16 07:04:40;;;;;;;16.67;13.65;;;;;;;5.89;100.00;98930.74;1723879;82;21070;-76
2022/11/16 07:07:07;;;;;;;17.90;13.58;;;;;;;5.99;100.00;98936.28;1711448;83;21014;-75
2022/11/16 07:09:34;;;;;;;13.00;11.55;;;;;;;6.03;100.00;98933.41;1711828;82;21474;-74
2022/11/16 07:12:03;;;;;;;14.35;11.90;;;;;;;6.11;100.00;98930.87;1723460;82;21524;-77
2022/11/16 07:14:32;;;;;;;13.13;10.13;;;;;;;6.18;100.00;98926.73;1687666;83;21146;-78
2022/11/16 07:16:59;;;;;;;15.93;12.43;;;;;;;6.24;100.00;98921.22;1702706;83;21050;-76
2022/11/16 07:19:27;;;;;;;18.45;13.25;;;;;;;6.20;100.00;98922.75;1687099;84;21053;-77
2022/11/16 07:21:54;;;;;;;17.82;14.50;;;;;;;6.19;100.00;98927.80;1683135;84;20955;-78
2022/11/16 07:24:22;;;;;;;16.75;12.58;;;;;;;6.17;100.00;98929.11;1686904;84;21062;-79
2022/11/16 07:26:49;;;;;;;19.90;14.07;;;;;;;6.18;100.00;98931.55;1683408;84;22212;-78
2022/11/16 07:29:17;;;;;;;15.48;11.97;;;;;;;6.22;100.00;98936.69;1695047;83;21002;-79
2022/11/16 07:31:45;;;;;;;19.70;13.98;;;;;;;6.21;100.00;98931.05;1649993;86;21059;-78
2022/11/16 07:34:29;;;;;;;26.95;17.37;;;;;;;6.18;100.00;98929.39;1620242;86;21022;-77
2022/11/16 07:36:58;;;;;;;30.30;24.40;;;;;;;6.13;100.00;98930.93;1663311;86;21040;-77
2022/11/16 07:39:26;;;;;;;21.20;15.98;;;;;;;6.13;100.00;98933.60;1665190;85;21282;-77
2022/11/16 07:41:54;;;;;;;17.62;14.03;;;;;;;6.15;100.00;98928.00;1657657;84;21050;-77
2022/11/16 07:44:22;;;;;;;18.35;14.20;;;;;;;6.19;100.00;98921.68;1665894;86;21007;-78
2022/11/16 07:46:50;;;;;;;17.98;12.95;;;;;;;6.22;100.00;98929.20;1660432;86;21527;-79
2022/11/16 07:49:18;;;;;;;18.45;12.30;;;;;;;6.21;100.00;98923.05;1654046;86;21548;-78
2022/11/16 07:51:52;;;;;;;16.97;11.12;;;;;;;6.20;100.00;98921.42;1661987;85;21183;-78
2022/11/16 07:54:37;;;;;;;17.00;11.83;;;;;;;6.21;100.00;98926.23;1690741;84;21010;-75
2022/11/16 07:57:07;;;;;;;17.25;11.57;;;;;;;6.15;100.00;98917.32;1656185;85;21002;-73
2022/11/16 07:59:34;;;;;;;16.48;13.65;;;;;;;6.11;100.00;98921.00;1622908;85;21116;-75
2022/11/16 08:02:02;;;;;;;15.20;9.93;;;;;;;6.03;100.00;98921.41;1668409;85;21048;-75
2022/11/16 08:04:29;;;;;;;16.42;10.23;;;;;;;6.03;100.00;98917.92;1680079;85;21231;-75
2022/11/16 08:06:56;;;;;;;17.02;10.75;;;;;;;6.04;100.00;98922.21;1670345;85;20929;-76
2022/11/16 08:09:23;;;;;;;14.10;11.85;;;;;;;6.06;100.00;98919.58;1624853;88;21053;-74
2022/11/16 08:11:50;;;;;;;16.73;11.10;;;;;;;6.12;100.00;98925.82;1625062;87;21141;-73
2022/11/16 08:14:18;;;;;;;16.17;11.65;;;;;;;6.15;100.00;98922.66;1637630;86;21119;-75
2022/11/16 08:16:45;;;;;;;16.90;11.25;;;;;;;6.16;100.00;98919.47;1626270;88;22046;-78
2022/11/16 08:19:13;;;;;;;16.77;11.08;;;;;;;6.15;100.00;98915.98;1636411;87;21058;-76
2022/11/16 08:21:40;;;;;;;17.82;11.63;;;;;;;6.16;100.00;98914.13;1674911;84;21050;-76
2022/11/16 08:24:08;;;;;;;14.45;9.30;;;;;;;6.13;100.00;98913.58;1675187;85;21044;-74
2022/11/16 08:26:37;;;;;;;14.87;9.98;;;;;;;6.08;100.00;98916.16;1682616;85;21050;-75
2022/11/16 08:29:05;;;;;;;14.38;9.88;;;;;;;6.06;100.00;98915.57;1669346;83;21534;-72
2022/11/16 08:31:35;;;;;;;16.40;12.45;;;;;;;6.04;100.00;98922.99;1628916;87;21076;-71
2022/11/16 08:34:10;;;;;;;15.55;11.65;;;;;;;6.04;100.00;98919.55;1667144;85;21002;-73
2022/11/16 08:36:38;;;;;;;17.40;11.38;;;;;;;6.07;100.00;98923.06;1671750;84;21071;-79
2022/11/16 08:39:05;;;;;;;17.73;12.78;;;;;;;6.03;100.00;98925.41;1670124;84;21574;-84
2022/11/16 08:41:36;;;;;;;15.18;11.03;;;;;;;6.01;100.00;98918.67;1673275;85;21105;-79
2022/11/16 08:44:04;;;;;;;20.20;12.55;;;;;;;6.01;100.00;98919.48;1672853;85;21497;-80
2022/11/16 08:46:31;;;;;;;16.52;12.75;;;;;;;6.02;100.00;98922.44;1669977;85;21001;-77
2022/11/16 08:48:59;;;;;;;16.02;11.28;;;;;;;6.06;100.00;98922.24;1672827;85;20992;-77
2022/11/16 08:51:26;;;;;;;23.27;13.80;;;;;;;6.12;100.00;98921.30;1673925;85;21058;-72
2022/11/16 08:53:57;;;;;;;19.98;13.10;;;;;;;6.13;100.00;98922.11;1672116;85;21141;-72
2022/11/16 08:56:29;;;;;;;19.60;10.63;;;;;;;6.09;100.00;98920.42;1672035;85;21023;-74
2022/11/16 08:58:53;;;;;;;14.30;10.93;;;;;;;6.01;100.00;98917.33;1654766;86;21587;-72
2022/11/16 09:01:24;;;;;;;13.60;9.95;;;;;;;6.02;100.00;98917.63;1655021;85;21576;-73
2022/11/16 09:03:52;;;;;;;14.13;10.80;;;;;;;6.01;100.00;98920.81;1682298;85;21628;-72
2022/11/16 09:06:18;;;;;;;13.88;11.45;;;;;;;6.04;100.00;98918.20;1690432;83;21100;-74
2022/11/16 09:08:45;;;;;;;17.27;12.58;;;;;;;6.09;100.00;98912.97;1655149;83;20991;-72
2022/11/16 09:11:16;;;;;;;16.40;11.68;;;;;;;6.09;100.00;98908.96;1663503;83;20985;-74
2022/11/16 09:13:44;;;;;;;19.25;14.13;;;;;;;6.09;100.00;98911.08;1682160;85;20956;-73
2022/11/16 09:16:15;;;;;;;19.92;13.40;;;;;;;6.08;100.00;98907.34;1677995;83;21103;-73
2022/11/16 09:18:45;;;;;;;18.67;13.10;;;;;;;6.07;100.00;98913.19;1681524;83;21220;-75
2022/11/16 09:21:27;;;;;;;18.48;14.10;;;;;;;6.08;100.00;98911.34;1675436;83;21543;-74
2022/11/16 09:23:55;;;;;;;19.87;14.68;;;;;;;6.09;100.00;98908.41;1680414;84;21034;-75
2022/11/16 09:26:21;;;;;;;16.80;11.85;;;;;;;6.09;100.00;98891.05;1677719;83;21075;-74
2022/11/16 09:28:57;;;;;;;17.70;12.80;;;;;;;6.14;100.00;98893.00;1672860;83;21057;-75
2022/11/16 09:31:26;;;;;;;18.65;13.43;;;;;;;6.15;100.00;98901.30;1695193;83;21173;-72
2022/11/16 09:33:54;;;;;;;18.30;11.97;;;;;;;6.16;100.00;98900.78;1670227;84;21094;-74
2022/11/16 09:36:22;;;;;;;17.77;11.05;;;;;;;6.18;100.00;98903.52;1689945;84;21253;-74
2022/11/16 09:38:51;;;;;;;21.42;15.28;;;;;;;6.25;100.00;98897.48;1739241;82;21618;-75
2022/11/16 09:41:26;;;;;;;11.78;10.00;;;;;;;6.31;100.00;98901.05;1731945;82;21561;-74
2022/11/16 09:44:38;;;;;;;14.23;10.38;;;;;;;6.36;100.00;98903.28;1722903;83;22343;-75
2022/11/16 09:47:10;;;;;;;11.97;9.00;;;;;;;6.37;100.00;98897.42;1711217;83;21020;-77
2022/11/16 09:49:53;;;;;;;12.75;8.98;;;;;;;6.29;100.00;98897.80;1678774;83;21043;-78
2022/11/16 09:52:34;;;;;;;15.03;9.35;;;;;;;6.25;100.00;98898.81;1722460;83;21051;-76
2022/11/16 09:55:14;;;;;;;11.55;9.38;;;;;;;6.19;100.00;98897.09;1723919;82;21055;-75
2022/11/16 09:57:42;;;;;;;10.38;8.98;;;;;;;6.14;100.00;98892.48;1730858;81;21224;-81
2022/11/16 10:00:17;;;;;;;13.40;10.53;;;;;;;6.18;100.00;98896.03;1723374;83;21063;-76
2022/11/16 10:02:47;;;;;;;12.10;10.18;;;;;;;6.20;100.00;98890.72;1726321;82;21560;-73
2022/11/16 10:05:28;;;;;;;13.20;11.43;;;;;;;6.24;100.00;98885.17;1723282;82;20949;-74
2022/11/16 10:08:17;;;;;;;12.73;10.10;;;;;;;6.21;100.00;98896.34;1721414;83;21068;-76
2022/11/16 10:11:05;;;;;;;18.35;13.40;;;;;;;6.22;100.00;98882.47;1724766;83;22231;-76
2022/11/16 10:14:05;;;;;;;21.37;14.55;;;;;;;6.20;100.00;98883.23;1721090;83;21057;-81
2022/11/16 10:16:57;;;;;;;19.57;14.58;;;;;;;6.21;100.00;98882.19;1702980;83;20941;-74
2022/11/16 10:19:59;;;;;;;18.17;14.15;;;;;;;6.21;100.00;98881.66;1718129;83;21018;-75
2022/11/16 10:22:45;;;;;;;21.65;14.13;;;;;;;6.21;100.00;98884.86;1714806;83;21088;-73
2022/11/16 10:25:18;;;;;;;24.95;18.27;;;;;;;6.24;100.00;98883.84;1723429;83;21227;-74
2022/11/16 16:30:53;;;;;;;8.67;7.63;;;;;;;3.56;100.00;98852.61;1796581;77;25136;-82
2022/11/16 16:33:21;;;;;;;7.45;6.50;;;;;;;3.54;100.00;98857.87;1774662;80;20968;-81
2022/11/16 16:35:51;;;;;;;12.05;8.50;;;;;;;3.55;100.00;98856.84;1777450;80;21153;-76
2022/11/16 16:38:19;;;;;;;11.15;8.68;;;;;;;3.58;100.00;98855.87;1715811;82;21053;-79
2022/11/16 16:40:46;;;;;;;9.00;6.55;;;;;;;3.62;100.00;98852.23;1753992;79;20989;-79
2022/11/16 16:43:13;;;;;;;9.68;7.17;;;;;;;3.60;100.00;98854.33;1769302;79;20983;-80
2022/11/16 16:45:42;;;;;;;7.80;5.70;;;;;;;3.62;100.00;98856.22;1754360;80;21004;-80
2022/11/16 16:48:10;;;;;;;9.60;5.72;;;;;;;3.61;100.00;98862.05;1750013;80;21157;-79
2022/11/16 16:50:37;;;;;;;6.53;5.83;;;;;;;3.61;100.00;98863.38;1777013;80;21039;-87
2022/11/16 16:53:04;;;;;;;8.83;6.42;;;;;;;3.60;100.00;98863.08;1763693;80;21480;-73
2022/11/16 16:55:33;;;;;;;7.72;6.08;;;;;;;3.60;100.00;98863.08;1784620;79;21519;-74
2022/11/16 16:58:00;;;;;;;6.53;5.78;;;;;;;3.53;100.00;98870.87;1718138;80;21051;-74
2022/11/16 17:00:27;;;;;;;6.42;5.78;;;;;;;3.56;100.00;98868.56;1742413;81;21388;-78
2022/11/16 17:02:57;;;;;;;7.72;5.97;;;;;;;3.56;100.00;98868.56;1770427;80;20955;-80
2022/11/16 17:05:25;;;;;;;7.15;5.47;;;;;;;3.58;100.00;98856.39;1772757;80;21044;-75
2022/11/16 17:07:56;;;;;;;9.55;8.55;;;;;;;3.58;100.00;98851.88;1745446;82;20968;-75
2022/11/16 17:10:22;;;;;;;8.73;7.00;;;;;;;3.53;100.00;98859.72;1757834;79;21835;-76
2022/11/16 17:12:54;;;;;;;6.72;6.05;;;;;;;3.51;100.00;98862.59;1728426;82;21532;-74
2022/11/16 17:15:22;;;;;;;6.60;5.65;;;;;;;3.43;100.00;98862.91;1760836;80;20942;-76
2022/11/16 17:17:49;;;;;;;6.35;5.75;;;;;;;3.37;100.00;98861.14;1757411;80;21000;-78
2022/11/16 17:20:16;;;;;;;7.33;5.85;;;;;;;3.30;100.00;98856.95;1774907;80;21069;-78
2022/11/16 17:22:43;;;;;;;8.13;5.30;;;;;;;3.25;100.00;98853.64;1745297;82;21084;-79
2022/11/16 17:25:09;;;;;;;8.93;6.67;;;;;;;3.23;100.00;98851.70;1744839;82;21188;-77
2022/11/16 17:27:36;;;;;;;6.70;5.90;;;;;;;3.23;100.00;98850.37;1745570;82;20954;-79
2022/11/16 17:30:04;;;;;;;8.35;6.53;;;;;;;3.21;100.00;98846.34;1735809;82;20987;-79
2022/11/16 17:32:31;;;;;;;8.40;6.70;;;;;;;3.16;100.00;98844.86;1727537;81;21560;-81
2022/11/16 17:34:57;;;;;;;6.97;5.92;;;;;;;3.10;100.00;98849.73;1744331;80;21034;-82
2022/11/16 17:37:24;;;;;;;8.80;7.50;;;;;;;3.00;100.00;98847.59;1730229;83;21815;-90
2022/11/16 17:39:50;;;;;;;7.78;6.97;;;;;;;2.95;100.00;98850.91;1706065;82;21005;-85
2022/11/16 17:42:18;;;;;;;9.33;6.97;;;;;;;2.91;100.00;98848.92;1709081;83;21724;-88
2022/11/16 17:44:45;;;;;;;8.05;7.25;;;;;;;2.89;100.00;98859.75;1717742;83;20994;-86
2022/11/16 17:47:11;;;;;;;7.55;6.83;;;;;;;2.89;100.00;98859.75;1714999;83;21040;-88
2022/11/16 17:49:39;;;;;;;7.17;6.47;;;;;;;2.94;100.00;98850.61;1747922;80;21138;-77
2022/11/16 17:52:07;;;;;;;7.45;6.35;;;;;;;2.93;100.00;98851.64;1714344;83;21004;-75
2022/11/16 17:54:33;;;;;;;11.10;8.15;;;;;;;2.93;100.00;98850.31;1736216;82;21552;-84
2022/11/16 17:57:00;;;;;;;8.20;6.75;;;;;;;2.90;100.00;98847.30;1740603;81;20938;-78
2022/11/16 17:59:28;;;;;;;7.12;5.75;;;;;;;2.91;100.00;98850.25;1713075;83;20885;-93
2022/11/16 18:01:56;;;;;;;10.50;6.40;;;;;;;2.93;100.00;98842.86;1719784;82;21190;-85
2022/11/16 18:04:23;;;;;;;8.53;7.58;;;;;;;2.85;100.00;98847.95;1703755;83;20942;-82
2022/11/16 18:06:51;;;;;;;7.60;6.62;;;;;;;2.82;100.00;98840.45;1752324;81;20990;-80
2022/11/16 18:09:17;;;;;;;7.70;6.70;;;;;;;2.79;100.00;98830.25;1721303;82;20978;-76
2022/11/16 21:50:38;;;;;;;10.00;7.70;;;;;;;1.77;100.00;98812.20;1726631;78;23475;-74
2022/11/16 21:53:05;;;;;;;10.53;7.95;;;;;;;1.76;100.00;98818.52;1711299;82;20994;-74
2022/11/16 21:55:33;;;;;;;9.23;8.33;;;;;;;1.83;100.00;98818.45;1752173;81;21772;-74
2022/11/16 21:58:02;;;;;;;8.15;7.30;;;;;;;1.87;100.00;98821.78;1752283;81;21009;-74
2022/11/16 22:00:28;;;;;;;6.95;6.17;;;;;;;1.93;100.00;98820.94;1757325;81;21008;-75
2022/11/16 22:02:55;;;;;;;8.90;6.78;;;;;;;1.94;100.00;98829.19;1767706;80;20998;-75
2022/11/16 22:08:10;;;;;;;10.93;6.62;;;;;;;2.05;100.00;98820.55;1733374;82;21175;-78
2022/11/16 22:10:38;;;;;;;7.20;6.35;;;;;;;2.11;100.00;98809.05;1756902;81;20938;-85
2022/11/16 22:13:05;;;;;;;9.50;6.37;;;;;;;2.09;100.00;98812.97;1739950;81;21028;-82
2022/11/16 22:15:32;;;;;;;6.40;5.75;;;;;;;2.06;100.00;98806.23;1752592;81;21020;-72
2022/11/16 22:18:01;;;;;;;8.78;5.92;;;;;;;2.08;100.00;98800.73;1748987;81;21080;-72
2022/11/16 22:20:27;;;;;;;6.85;6.17;;;;;;;2.07;100.00;98796.45;1754705;80;22345;-71
2022/11/16 22:22:54;;;;;;;8.18;5.65;;;;;;;2.04;100.00;98805.66;1756687;81;20902;-78
2022/11/16 22:25:20;;;;;;;7.08;6.37;;;;;;;1.96;100.00;98805.94;1756410;81;21002;-72
2022/11/16 22:27:48;;;;;;;6.28;5.67;;;;;;;1.94;100.00;98811.95;1721853;81;21048;-73
2022/11/16 22:30:15;;;;;;;6.05;5.28;;;;;;;1.90;100.00;98798.02;1753167;81;21680;-72
2022/11/16 22:32:42;;;;;;;7.12;6.42;;;;;;;1.89;100.00;98803.84;1727218;81;21276;-75
2022/11/16 22:35:09;;;;;;;5.75;5.25;;;;;;;1.88;100.00;98806.69;1744849;81;21542;-74
2022/11/16 22:37:35;;;;;;;11.90;7.90;;;;;;;1.85;100.00;98805.30;1713316;82;21625;-75
2022/11/16 22:40:04;;;;;;;7.92;6.28;;;;;;;1.78;100.00;98809.83;1729708;82;21043;-77
2022/11/16 22:42:31;;;;;;;6.72;6.08;;;;;;;1.79;100.00;98803.50;1744213;82;21066;-77
2022/11/16 22:44:58;;;;;;;8.53;6.28;;;;;;;1.83;100.00;98802.04;1715985;82;21106;-76
2022/11/16 22:47:24;;;;;;;7.25;6.55;;;;;;;1.81;100.00;98805.95;1743832;82;21014;-75
2022/11/16 22:49:52;;;;;;;5.65;5.15;;;;;;;1.76;100.00;98803.95;1742992;81;20974;-70
2022/11/16 22:52:21;;;;;;;5.97;5.37;;;;;;;1.73;100.00;98796.41;1739971;82;20939;-69
2022/11/16 22:54:48;;;;;;;5.53;5.03;;;;;;;1.73;100.00;98799.87;1742356;82;21078;-70
2022/11/16 22:57:14;;;;;;;5.50;5.00;;;;;;;1.70;100.00;98805.61;1728718;82;21139;-71
2022/11/16 22:59:41;;;;;;;5.75;5.25;;;;;;;1.65;100.00;98793.52;1727148;82;21515;-71
2022/11/16 23:02:08;;;;;;;5.53;5.03;;;;;;;1.65;100.00;98805.44;1726898;80;20997;-80
2022/11/16 23:04:34;;;;;;;7.15;5.58;;;;;;;1.64;100.00;98810.43;1741160;82;21507;-74
2022/11/16 23:07:01;;;;;;;5.83;5.00;;;;;;;1.61;100.00;98809.55;1717468;82;21035;-84
2022/11/16 23:09:28;;;;;;;5.37;4.87;;;;;;;1.65;100.00;98809.92;1720608;82;21807;-80
2022/11/16 23:17:26;;;;;;;6.87;6.17;;;;;;;1.59;100.00;98814.23;1744149;82;20960;-80
2022/11/16 23:28:14;;;;;;;8.30;7.45;;;;;;;1.51;100.00;98805.73;1787901;80;20954;-69
2022/11/16 23:30:41;;;;;;;6.97;6.35;;;;;;;1.48;100.00;98797.72;1787604;80;20997;-70
2022/11/16 23:33:08;;;;;;;6.05;5.50;;;;;;;1.45;100.00;98814.02;1778949;80;20966;-70
2022/11/16 23:35:36;;;;;;;6.80;6.05;;;;;;;1.47;100.00;98816.46;1770821;80;21240;-68
2022/11/16 23:38:05;;;;;;;7.92;7.00;;;;;;;1.48;100.00;98808.31;1745846;81;20961;-68
2022/11/16 23:40:35;;;;;;;6.83;6.22;;;;;;;1.50;100.00;98819.48;1744363;81;21014;-69
2022/11/16 23:45:46;;;;;;;7.90;6.42;;;;;;;1.42;100.00;98814.96;1788739;80;21085;-81
2022/11/16 23:48:14;;;;;;;8.25;6.33;;;;;;;1.41;100.00;98809.36;1787983;80;21123;-84
2022/11/16 23:50:41;;;;;;;6.92;6.28;;;;;;;1.39;100.00;98818.05;1782648;80;20974;-71
2022/11/16 23:53:08;;;;;;;7.03;6.33;;;;;;;1.33;100.00;98827.64;1773620;80;20958;-70
2022/11/16 23:55:39;;;;;;;7.83;7.05;;;;;;;1.30;100.00;98823.56;1768161;80;20923;-69
2022/11/16 23:58:08;;;;;;;10.80;5.60;;;;;;;1.29;100.00;98823.80;1786642;80;21062;-71
